createdAt,value
2022-08-09T00:04:03.548Z,47.62
2022-08-09T00:09:08.257Z,47.80
2022-08-09T00:14:08.591Z,48.40
2022-08-09T00:19:10.316Z,48.66
2022-08-09T00:24:08.105Z,49.14
2022-08-09T00:29:39.583Z,49.24
2022-08-09T00:34:33.426Z,49.49
2022-08-09T00:40:12.713Z,49.57
2022-08-09T00:44:48.969Z,49.95
2022-08-09T00:49:54.540Z,50.28
2022-08-09T00:54:55.362Z,50.73
2022-08-09T00:59:54.231Z,50.89
2022-08-09T01:04:58.048Z,51.25
2022-08-09T01:10:02.688Z,51.11
2022-08-09T01:15:06.075Z,51.74
2022-08-09T01:20:27.003Z,52.45
2022-08-09T01:26:01.766Z,52.53
2022-08-09T01:31:02.985Z,53.24
2022-08-09T01:36:07.252Z,53.32
2022-08-09T01:41:09.547Z,53.82
2022-08-09T01:46:09.840Z,53.35
2022-08-09T01:51:22.585Z,53.67
2022-08-09T01:56:22.151Z,53.95
2022-08-09T02:01:21.537Z,53.48
2022-08-09T02:06:58.669Z,53.11
2022-08-09T02:11:59.979Z,53.27
2022-08-09T02:17:59.159Z,52.97
2022-08-09T02:22:35.060Z,52.90
2022-08-09T02:27:58.139Z,53.23
2022-08-09T02:32:55.076Z,53.02
2022-08-09T02:37:57.907Z,53.84
2022-08-09T02:42:59.909Z,54.74
2022-08-09T02:48:02.891Z,55.11
2022-08-09T02:53:17.291Z,56.00
2022-08-09T02:58:36.945Z,56.00
2022-08-09T03:04:18.239Z,56.37
2022-08-09T03:08:57.258Z,56.03
2022-08-09T03:13:59.619Z,56.68
2022-08-09T03:19:01.609Z,56.63
2022-08-09T03:24:04.728Z,56.32
2022-08-09T03:29:02.539Z,56.29
2022-08-09T03:34:19.815Z,55.72
2022-08-09T03:39:20.074Z,55.81
2022-08-09T03:44:27.869Z,55.51
2022-08-09T03:49:35.665Z,55.15
2022-08-09T03:54:44.922Z,55.12
2022-08-09T03:59:52.827Z,55.50
2022-08-09T04:04:53.791Z,55.79
2022-08-09T04:09:53.725Z,55.43
2022-08-09T04:15:00.350Z,55.50
2022-08-09T04:20:02.535Z,55.64
2022-08-09T04:25:00.182Z,55.52
2022-08-09T04:29:58.684Z,55.42
2022-08-09T04:35:03.439Z,55.16
2022-08-09T04:40:02.295Z,55.38
2022-08-09T04:45:03.412Z,55.65
2022-08-09T04:50:07.032Z,55.49
2022-08-09T04:55:17.547Z,55.21
2022-08-09T05:00:23.378Z,54.39
2022-08-09T05:05:31.769Z,54.01
2022-08-09T05:10:38.984Z,53.46
2022-08-09T05:15:39.307Z,53.51
2022-08-09T05:20:40.763Z,53.46
2022-08-09T05:25:45.074Z,53.32
2022-08-09T05:30:48.714Z,52.76
2022-08-09T05:35:50.869Z,52.53
2022-08-09T05:40:50.587Z,51.63
2022-08-09T05:45:55.857Z,49.72
2022-08-09T05:51:16.735Z,48.73
2022-08-09T05:56:37.775Z,46.53
2022-08-09T06:01:58.996Z,42.83
2022-08-09T06:06:56.488Z,41.56
2022-08-09T06:11:57.671Z,41.87
2022-08-09T06:16:55.490Z,40.93
2022-08-09T06:21:58.393Z,38.75
2022-08-09T06:26:59.164Z,36.97
2022-08-09T06:32:24.620Z,36.95
2022-08-09T06:37:13.394Z,37.54
2022-08-09T06:42:11.608Z,37.85
2022-08-09T06:47:09.019Z,37.91
2022-08-09T06:52:06.662Z,37.40
2022-08-09T06:57:08.911Z,37.47
2022-08-09T07:02:11.496Z,37.95
2022-08-09T07:07:59.626Z,37.58
2022-08-09T07:13:05.425Z,36.25
2022-08-09T07:18:23.388Z,35.26
2022-08-09T07:23:22.844Z,35.53
2022-08-09T07:28:28.278Z,34.40
2022-08-09T07:33:26.524Z,33.25
2022-08-09T07:38:31.023Z,33.08
2022-08-09T07:43:41.154Z,32.47
2022-08-09T07:50:07.670Z,31.55
2022-08-09T07:55:41.465Z,31.25
2022-08-09T08:00:58.855Z,31.02
2022-08-09T08:06:09.580Z,30.58
2022-08-09T08:12:09.347Z,29.65
2022-08-09T08:17:07.630Z,29.05
2022-08-09T08:22:28.507Z,28.91
2022-08-09T08:27:27.043Z,28.57
2022-08-09T08:32:52.212Z,28.35
2022-08-09T08:38:11.416Z,27.76
2022-08-09T08:43:13.893Z,27.43
2022-08-09T08:48:31.739Z,26.66
2022-08-09T08:53:32.326Z,26.13
2022-08-09T08:58:38.946Z,26.34
2022-08-09T09:10:02.239Z,25.58
2022-08-09T09:15:33.735Z,25.80
2022-08-09T09:20:52.208Z,25.58
2022-08-09T09:26:16.709Z,25.65
2022-08-09T09:32:04.140Z,25.09
2022-08-09T09:36:39.202Z,25.07
2022-08-09T09:41:49.906Z,25.69
2022-08-09T09:47:00.062Z,24.88
2022-08-09T09:58:03.949Z,24.91
2022-08-09T10:03:09.219Z,25.23
2022-08-09T10:08:28.056Z,24.14
2022-08-09T10:13:43.236Z,21.79
2022-08-09T10:18:54.693Z,22.42
2022-08-09T10:24:01.143Z,23.23
2022-08-09T10:29:36.099Z,21.38
2022-08-09T10:34:33.528Z,22.22
2022-08-09T10:39:40.788Z,21.44
2022-08-09T10:44:55.062Z,21.42
2022-08-09T10:50:14.825Z,20.69
2022-08-09T10:55:23.569Z,19.06
2022-08-09T11:00:41.804Z,21.44
2022-08-09T11:06:19.930Z,21.96
2022-08-09T11:11:18.354Z,18.90
2022-08-09T11:16:37.310Z,19.23
2022-08-09T11:21:57.451Z,20.13
2022-08-09T11:28:05.486Z,20.32
2022-08-09T11:32:49.861Z,20.35
2022-08-09T11:37:50.343Z,20.95
2022-08-09T11:42:49.051Z,21.08
2022-08-09T11:47:47.702Z,20.98
2022-08-09T11:53:59.760Z,20.30
2022-08-09T11:58:48.172Z,20.17
2022-08-09T12:03:55.198Z,20.39
2022-08-09T12:09:21.133Z,19.51
2022-08-09T12:14:40.527Z,18.58
2022-08-09T12:20:27.902Z,18.51
2022-08-09T12:25:49.485Z,18.37
2022-08-09T12:31:57.955Z,16.95
2022-08-09T12:36:59.097Z,16.93
2022-08-09T12:42:25.803Z,16.99
2022-08-09T12:47:25.268Z,17.48
2022-08-09T12:52:22.426Z,17.66
2022-08-09T12:58:11.673Z,17.51
2022-08-09T13:03:57.054Z,17.57
2022-08-09T13:08:58.661Z,17.20
2022-08-09T13:14:37.029Z,17.89
2022-08-09T13:20:10.277Z,17.55
2022-08-09T13:24:54.354Z,17.54
2022-08-09T13:30:03.544Z,17.48
2022-08-09T13:35:01.603Z,17.90
2022-08-09T13:41:51.049Z,17.76
2022-08-09T13:45:17.984Z,17.42
2022-08-09T13:50:29.936Z,18.11
2022-08-09T13:55:29.177Z,18.12
2022-08-09T14:00:29.472Z,17.92
2022-08-09T14:05:59.912Z,17.98
2022-08-09T14:10:50.614Z,17.82
2022-08-09T14:16:09.756Z,17.91
2022-08-09T14:21:08.769Z,17.53
2022-08-09T14:26:06.677Z,18.17
2022-08-09T14:31:07.973Z,17.92
2022-08-09T14:36:20.886Z,18.06
2022-08-09T14:41:24.072Z,17.32
2022-08-09T14:46:55.485Z,17.60
2022-08-09T14:51:59.013Z,17.38
2022-08-09T14:56:58.872Z,18.64
2022-08-09T15:01:57.210Z,19.40
2022-08-09T15:06:55.637Z,19.52
2022-08-09T15:11:52.664Z,19.79
2022-08-09T15:16:50.748Z,19.65
2022-08-09T15:21:54.683Z,19.54
2022-08-09T15:26:59.809Z,19.86
2022-08-09T15:32:00.231Z,20.22
2022-08-09T15:37:10.095Z,20.90
2022-08-09T15:42:09.055Z,21.00
2022-08-09T15:47:07.550Z,21.49
2022-08-09T15:52:15.312Z,21.48
2022-08-09T16:02:38.657Z,21.14
2022-08-09T16:07:49.489Z,20.61
2022-08-09T16:12:53.502Z,20.70
2022-08-09T16:17:52.904Z,20.82
2022-08-09T16:22:53.421Z,21.01
2022-08-09T16:28:44.762Z,21.13
2022-08-09T16:33:52.769Z,21.02
2022-08-09T16:38:53.368Z,20.99
2022-08-09T16:43:52.181Z,20.86
2022-08-09T16:49:05.933Z,20.61
2022-08-09T16:55:04.129Z,20.79
2022-08-09T17:00:09.691Z,21.15
2022-08-09T17:06:08.007Z,21.34
2022-08-09T17:11:24.541Z,21.47
2022-08-09T17:16:45.004Z,22.84
2022-08-09T17:22:07.833Z,23.29
2022-08-09T17:27:18.418Z,23.51
2022-08-09T17:32:20.257Z,23.28
2022-08-09T17:38:32.910Z,23.44
2022-08-09T17:44:38.840Z,23.80
2022-08-09T17:49:50.803Z,23.16
2022-08-09T17:55:05.662Z,24.33
2022-08-09T18:00:10.126Z,24.80
2022-08-09T18:05:22.251Z,25.59
2022-08-09T18:10:31.645Z,25.83
2022-08-09T18:16:05.421Z,26.39
2022-08-09T18:21:23.565Z,24.89
2022-08-09T18:26:37.898Z,23.85
2022-08-09T18:31:55.951Z,23.08
2022-08-09T18:37:10.515Z,21.79
2022-08-09T18:42:31.055Z,23.93
2022-08-09T18:47:50.099Z,28.02
2022-08-09T18:53:07.306Z,31.43
2022-08-09T18:58:12.804Z,31.69
2022-08-09T19:03:29.753Z,43.73
2022-08-09T19:10:12.816Z,46.63
2022-08-09T19:14:49.166Z,42.53
2022-08-09T19:20:00.778Z,45.04
2022-08-09T19:30:28.245Z,53.71
2022-08-09T19:35:56.714Z,55.94
2022-08-09T19:41:04.598Z,55.76
2022-08-09T19:46:14.393Z,54.75
2022-08-09T19:51:16.529Z,45.64
2022-08-09T19:56:18.520Z,43.60
2022-08-09T20:01:28.117Z,44.09
2022-08-09T20:06:45.523Z,42.88
2022-08-09T20:11:55.588Z,41.55
2022-08-09T20:17:00.015Z,40.29
2022-08-09T20:22:10.207Z,38.65
2022-08-09T20:27:17.090Z,37.99
2022-08-09T20:32:33.859Z,38.18
2022-08-09T20:38:20.710Z,37.53
2022-08-09T20:43:18.493Z,37.03
2022-08-09T20:48:21.920Z,36.96
2022-08-09T20:53:36.662Z,37.26
2022-08-09T20:58:43.532Z,37.62
2022-08-09T21:05:48.942Z,37.89
2022-08-09T21:08:58.836Z,38.35
2022-08-09T21:14:00.557Z,38.74
2022-08-09T21:19:08.287Z,39.39
2022-08-09T21:24:28.538Z,40.08
2022-08-09T21:29:30.477Z,41.27
2022-08-09T21:34:54.807Z,41.91
2022-08-09T21:39:54.362Z,42.99
2022-08-09T21:44:56.683Z,44.09
2022-08-09T21:49:54.418Z,45.45
2022-08-09T21:55:10.313Z,47.16
2022-08-09T22:00:26.005Z,47.63
2022-08-09T22:05:37.106Z,47.97
2022-08-09T22:10:36.027Z,49.04
2022-08-09T22:15:55.787Z,50.73
2022-08-09T22:20:55.897Z,51.51
2022-08-09T22:26:05.462Z,52.17
2022-08-09T22:31:06.622Z,53.12
2022-08-09T22:36:04.851Z,53.47
2022-08-09T22:48:14.692Z,52.60
2022-08-09T22:51:38.275Z,52.35
2022-08-09T22:56:36.802Z,53.13
2022-08-09T23:01:35.116Z,53.54
2022-08-09T23:06:47.031Z,53.04
2022-08-09T23:11:48.760Z,52.67
2022-08-09T23:16:46.845Z,52.36
2022-08-09T23:22:03.740Z,52.23
2022-08-09T23:27:01.052Z,52.93
2022-08-09T23:31:59.148Z,53.25
2022-08-09T23:36:56.577Z,53.26
2022-08-09T23:41:55.122Z,53.54
2022-08-09T23:46:52.747Z,53.66
2022-08-09T23:51:59.315Z,54.37
2022-08-09T23:56:58.090Z,54.81
